Time;durP1;ratioP1;P1;durP2;ratioP2;P2;SDS_P1;SDS_P2;PMS_P1;PMS_P2;Temp;Humidity;BMP_temperature;BMP_pressure;BME280_temperature;BME280_humidity;BME280_pressure;Samples;Min_cycle;Max_cycle;Signal;HPM_P1;HPM_P2
2024/03/27 00:01:10;;;;;;;;;;;;;;;2.65;83.98;97411.14;105731;1256;61288;-43
2024/03/27 00:03:37;;;;;;;;;;;;;;;2.63;84.06;97409.59;105734;1256;61254;-43
2024/03/27 00:06:04;;;;;;;;;;;;;;;2.61;84.24;97410.59;105895;1253;74627;-42
2024/03/27 00:08:32;;;;;;;;;;;;;;;2.60;84.25;97411.84;105809;1257;65847;-42
2024/03/27 00:10:59;;;;;;;;;;;;;;;2.58;84.49;97412.56;105628;1256;72350;-43
2024/03/27 00:13:26;;;;;;;;;;;;;;;2.57;84.50;97409.73;105542;1266;61336;-43
2024/03/27 00:15:54;;;;;;;;;;;;;;;2.56;84.57;97408.27;105628;1255;61208;-43
2024/03/27 00:18:22;;;;;;;;;;;;;;;2.57;84.66;97405.52;105719;1258;74708;-43
2024/03/27 00:20:49;;;;;;;;;;;;;;;2.56;84.72;97403.83;105671;1258;66260;-41
2024/03/27 00:23:16;;;;;;;;;;;;;;;2.55;84.69;97403.17;105575;1257;72767;-41
2024/03/27 00:25:43;;;;;;;;;;;;;;;2.54;84.81;97397.23;105579;1257;61253;-44
2024/03/27 00:28:10;;;;;;;;;;;;;;;2.53;84.85;97394.91;105546;1254;61872;-44
2024/03/27 00:30:38;;;;;;;;;;;;;;;2.52;84.85;97394.05;105622;1259;74861;-44
2024/03/27 00:33:05;;;;;;;;;;;;;;;2.50;84.72;97387.27;105641;1257;65992;-44
2024/03/27 00:35:32;;;;;;;;;;;;;;;2.49;84.82;97388.86;105763;1257;72278;-45
2024/03/27 00:37:59;;;;;;;;;;;;;;;2.48;84.86;97390.27;105836;1260;61256;-44
2024/03/27 00:40:27;;;;;;;;;;;;;;;2.47;84.89;97390.27;105655;1254;61195;-43
2024/03/27 00:42:55;;;;;;;;;;;;;;;2.47;84.99;97386.98;105684;1261;74571;-41
2024/03/27 00:45:22;;;;;;;;;;;;;;;2.47;84.93;97386.19;105828;1256;63833;-43
2024/03/27 00:47:49;;;;;;;;;;;;;;;2.47;85.01;97383.65;105368;1260;72343;-42
2024/03/27 00:50:16;;;;;;;;;;;;;;;2.48;84.85;97383.55;105931;1258;61307;-42
2024/03/27 00:52:46;;;;;;;;;;;;;;;2.48;84.94;97379.45;105595;1259;61331;-44
2024/03/27 00:55:14;;;;;;;;;;;;;;;2.50;84.81;97374.59;106043;1259;74729;-44
2024/03/27 00:57:42;;;;;;;;;;;;;;;2.52;84.80;97369.36;105678;1259;65262;-44
2024/03/27 01:00:10;;;;;;;;;;;;;;;2.53;84.71;97369.31;106120;1259;71982;-43
2024/03/27 01:02:38;;;;;;;;;;;;;;;2.55;84.60;97363.79;105456;1256;61314;-42
2024/03/27 01:05:05;;;;;;;;;;;;;;;2.57;84.47;97360.16;105583;1258;61180;-48
2024/03/27 01:07:33;;;;;;;;;;;;;;;2.58;84.29;97356.41;105534;1257;73996;-44
2024/03/27 01:10:00;;;;;;;;;;;;;;;2.60;84.33;97356.48;105688;1260;63848;-45
2024/03/27 01:12:28;;;;;;;;;;;;;;;2.61;84.13;97358.48;105703;1260;71534;-44
2024/03/27 01:14:55;;;;;;;;;;;;;;;2.61;84.10;97352.41;105590;1260;61227;-43
2024/03/27 01:17:22;;;;;;;;;;;;;;;2.62;84.02;97354.41;105547;1257;61253;-43
2024/03/27 01:19:49;;;;;;;;;;;;;;;2.61;83.91;97346.23;105644;1255;74367;-43
2024/03/27 01:22:16;;;;;;;;;;;;;;;2.61;83.82;97345.64;105690;1257;65272;-43
2024/03/27 01:24:43;;;;;;;;;;;;;;;2.59;83.87;97349.22;105516;1259;72746;-42
2024/03/27 01:27:11;;;;;;;;;;;;;;;2.59;83.72;97350.85;105553;1267;61128;-42
2024/03/27 01:29:38;;;;;;;;;;;;;;;2.60;83.78;97347.42;105538;1255;61163;-43
2024/03/27 01:32:06;;;;;;;;;;;;;;;2.58;83.73;97346.52;105704;1259;73505;-44
2024/03/27 01:34:33;;;;;;;;;;;;;;;2.56;83.76;97348.98;105588;1254;65928;-43
2024/03/27 01:37:00;;;;;;;;;;;;;;;2.55;83.73;97347.82;105718;1260;72654;-43
2024/03/27 01:39:27;;;;;;;;;;;;;;;2.55;83.70;97343.42;105599;1267;61263;-44
2024/03/27 01:41:54;;;;;;;;;;;;;;;2.55;83.70;97346.48;105582;1259;61577;-43
2024/03/27 01:44:21;;;;;;;;;;;;;;;2.54;83.79;97349.02;105484;1257;74564;-42
2024/03/27 01:46:48;;;;;;;;;;;;;;;2.53;83.75;97344.20;105614;1267;65718;-42
2024/03/27 01:49:16;;;;;;;;;;;;;;;2.54;83.78;97340.71;105819;1258;71328;-42
2024/03/27 01:51:43;;;;;;;;;;;;;;;2.55;83.71;97335.49;105763;1260;61257;-43
2024/03/27 01:54:11;;;;;;;;;;;;;;;2.56;83.61;97332.60;105492;1254;61262;-42
2024/03/27 01:56:38;;;;;;;;;;;;;;;2.56;83.62;97332.70;105763;1254;74023;-42
2024/03/27 01:59:05;;;;;;;;;;;;;;;2.55;83.61;97325.48;105769;1257;66331;-44
2024/03/27 02:01:32;;;;;;;;;;;;;;;2.54;83.57;97326.13;105589;1255;72716;-44
2024/03/27 02:03:59;;;;;;;;;;;;;;;2.54;83.47;97327.39;105663;1257;61231;-44
2024/03/27 02:06:26;;;;;;;;;;;;;;;2.53;83.29;97323.33;105719;1255;61320;-43
2024/03/27 02:08:54;;;;;;;;;;;;;;;2.53;83.24;97321.68;105677;1260;74378;-42
2024/03/27 02:11:21;;;;;;;;;;;;;;;2.53;83.30;97322.31;105680;1257;65414;-43
2024/03/27 02:13:48;;;;;;;;;;;;;;;2.53;83.20;97323.33;105635;1266;72625;-42
2024/03/27 02:16:15;;;;;;;;;;;;;;;2.52;83.13;97321.35;105770;1257;61250;-42
2024/03/27 02:18:42;;;;;;;;;;;;;;;2.51;83.01;97321.77;105770;1259;61313;-43
2024/03/27 02:21:10;;;;;;;;;;;;;;;2.48;83.13;97322.12;105827;1256;74372;-42
2024/03/27 02:23:41;;;;;;;;;;;;;;;2.44;83.02;97324.05;105634;1257;66235;-42
2024/03/27 02:26:10;;;;;;;;;;;;;;;2.43;83.06;97318.86;105669;1257;72620;-42
2024/03/27 02:28:37;;;;;;;;;;;;;;;2.41;83.13;97328.04;105745;1258;61224;-42
2024/03/27 02:31:05;;;;;;;;;;;;;;;2.38;83.15;97322.42;105707;1255;61277;-42
2024/03/27 02:33:32;;;;;;;;;;;;;;;2.37;83.15;97323.58;105665;1255;75028;-43
2024/03/27 02:35:59;;;;;;;;;;;;;;;2.34;83.21;97318.80;105687;1256;65962;-44
2024/03/27 02:38:27;;;;;;;;;;;;;;;2.32;83.37;97315.83;105758;1254;72295;-43
2024/03/27 02:40:54;;;;;;;;;;;;;;;2.30;83.32;97312.07;105910;1257;61259;-42
2024/03/27 02:43:21;;;;;;;;;;;;;;;2.30;83.35;97313.86;105737;1259;61240;-43
2024/03/27 02:45:48;;;;;;;;;;;;;;;2.30;83.41;97312.85;105802;1253;74304;-42
2024/03/27 02:48:16;;;;;;;;;;;;;;;2.30;83.37;97311.38;105692;1258;66038;-43
2024/03/27 02:50:43;;;;;;;;;;;;;;;2.31;83.47;97307.20;105574;1258;72378;-46
2024/03/27 02:53:10;;;;;;;;;;;;;;;2.31;83.36;97308.16;105608;1257;61196;-45
2024/03/27 02:55:37;;;;;;;;;;;;;;;2.32;83.29;97310.70;105814;1254;61250;-45
2024/03/27 02:58:04;;;;;;;;;;;;;;;2.33;83.16;97305.79;105781;1257;73392;-44
2024/03/27 03:00:31;;;;;;;;;;;;;;;2.33;83.17;97304.84;105769;1257;65956;-44
2024/03/27 03:02:58;;;;;;;;;;;;;;;2.33;83.20;97307.48;105747;1254;72854;-43
2024/03/27 03:05:26;;;;;;;;;;;;;;;2.33;83.18;97305.63;105858;1254;61272;-42
2024/03/27 03:07:53;;;;;;;;;;;;;;;2.33;83.12;97307.01;105761;1254;61180;-43
2024/03/27 03:10:20;;;;;;;;;;;;;;;2.33;83.18;97305.68;105718;1258;73695;-42
2024/03/27 03:12:47;;;;;;;;;;;;;;;2.32;83.15;97302.35;105663;1257;65921;-44
2024/03/27 03:15:14;;;;;;;;;;;;;;;2.32;83.23;97300.02;106106;1254;72549;-43
2024/03/27 03:17:42;;;;;;;;;;;;;;;2.29;83.41;97301.86;105743;1256;61398;-44
2024/03/27 03:20:10;;;;;;;;;;;;;;;2.25;83.71;97302.35;106099;1254;61158;-44
2024/03/27 03:22:37;;;;;;;;;;;;;;;2.20;83.88;97298.30;105822;1257;74580;-43
2024/03/27 03:25:05;;;;;;;;;;;;;;;2.15;84.05;97298.21;105692;1258;66012;-41
2024/03/27 03:27:32;;;;;;;;;;;;;;;2.11;84.20;97296.19;105704;1254;72388;-42
2024/03/27 03:30:00;;;;;;;;;;;;;;;2.07;84.38;97293.70;105778;1257;61365;-42
2024/03/27 03:32:27;;;;;;;;;;;;;;;2.05;84.66;97288.83;105877;1254;61263;-42
2024/03/27 03:34:55;;;;;;;;;;;;;;;2.04;84.84;97287.77;105736;1254;74481;-42
2024/03/27 03:37:22;;;;;;;;;;;;;;;2.04;84.92;97282.48;105779;1257;65968;-42
2024/03/27 03:39:49;;;;;;;;;;;;;;;2.03;85.19;97277.94;105589;1255;72892;-42
2024/03/27 03:42:16;;;;;;;;;;;;;;;2.01;85.17;97274.39;105755;1257;61352;-42
2024/03/27 03:44:43;;;;;;;;;;;;;;;1.99;85.31;97269.39;105718;1254;61314;-42
2024/03/27 03:47:10;;;;;;;;;;;;;;;1.97;85.58;97268.96;105595;1255;74639;-42
2024/03/27 03:49:37;;;;;;;;;;;;;;;1.96;85.73;97272.27;105653;1257;66031;-42
2024/03/27 03:52:04;;;;;;;;;;;;;;;1.96;85.87;97272.64;105578;1254;72366;-43
2024/03/27 03:54:31;;;;;;;;;;;;;;;1.95;85.89;97275.77;105528;1258;61352;-44
2024/03/27 03:56:58;;;;;;;;;;;;;;;1.97;86.01;97274.66;105613;1254;61397;-44
2024/03/27 03:59:26;;;;;;;;;;;;;;;1.98;86.03;97273.15;105642;1252;74459;-45
2024/03/27 04:01:53;;;;;;;;;;;;;;;2.00;86.10;97272.16;105705;1255;65595;-42
2024/03/27 04:04:20;;;;;;;;;;;;;;;2.02;86.20;97276.77;105843;1254;72448;-42
2024/03/27 04:06:47;;;;;;;;;;;;;;;2.02;86.22;97272.91;105764;1257;61250;-39
2024/03/27 04:09:14;;;;;;;;;;;;;;;2.01;86.28;97270.63;105597;1254;61359;-44
2024/03/27 04:11:41;;;;;;;;;;;;;;;2.01;86.22;97270.27;105661;1254;74831;-46
2024/03/27 04:14:09;;;;;;;;;;;;;;;2.02;86.26;97265.00;105611;1257;66003;-45
2024/03/27 04:16:36;;;;;;;;;;;;;;;2.01;86.34;97263.29;105650;1254;72920;-46
2024/03/27 04:19:03;;;;;;;;;;;;;;;2.01;86.32;97264.36;105760;1258;61355;-43
2024/03/27 04:21:30;;;;;;;;;;;;;;;2.03;86.42;97264.57;105870;1257;61220;-43
2024/03/27 04:23:57;;;;;;;;;;;;;;;2.09;86.14;97263.14;105743;1257;74448;-41
2024/03/27 04:26:25;;;;;;;;;;;;;;;2.14;85.98;97264.17;105677;1257;66503;-43
2024/03/27 04:28:52;;;;;;;;;;;;;;;2.19;85.70;97261.20;105573;1254;72479;-42
2024/03/27 04:31:19;;;;;;;;;;;;;;;2.24;85.51;97258.85;105668;1257;61292;-42
2024/03/27 04:33:46;;;;;;;;;;;;;;;2.29;85.25;97261.27;105590;1254;61285;-45
2024/03/27 04:36:13;;;;;;;;;;;;;;;2.34;84.94;97260.92;105659;1256;74848;-42
2024/03/27 04:38:41;;;;;;;;;;;;;;;2.40;84.53;97259.42;105880;1254;65984;-44
2024/03/27 04:41:09;;;;;;;;;;;;;;;2.46;84.36;97265.13;105809;1254;71376;-44
2024/03/27 04:43:37;;;;;;;;;;;;;;;2.51;84.33;97266.42;105595;1256;61241;-44
2024/03/27 04:46:06;;;;;;;;;;;;;;;2.55;83.95;97267.70;105672;1255;61260;-44
2024/03/27 04:48:33;;;;;;;;;;;;;;;2.58;83.85;97265.08;105824;1253;74338;-44
2024/03/27 04:51:01;;;;;;;;;;;;;;;2.61;83.65;97268.38;105669;1256;66035;-44
2024/03/27 04:53:29;;;;;;;;;;;;;;;2.65;83.51;97264.95;105716;1254;72667;-44
2024/03/27 04:55:56;;;;;;;;;;;;;;;2.67;83.43;97264.60;105819;1257;61206;-42
2024/03/27 04:58:23;;;;;;;;;;;;;;;2.70;83.36;97259.48;105912;1254;61236;-43
2024/03/27 05:00:50;;;;;;;;;;;;;;;2.74;83.19;97261.57;105734;1258;74335;-43
2024/03/27 05:03:17;;;;;;;;;;;;;;;2.80;83.06;97257.15;105672;1257;65978;-44
2024/03/27 05:05:45;;;;;;;;;;;;;;;2.84;82.80;97256.80;105576;1254;72363;-44
2024/03/27 05:08:13;;;;;;;;;;;;;;;2.88;82.77;97256.45;105605;1254;61333;-43
2024/03/27 05:10:40;;;;;;;;;;;;;;;2.93;82.81;97247.83;105929;1254;61234;-43
2024/03/27 05:13:07;;;;;;;;;;;;;;;2.98;82.63;97249.45;105848;1257;73892;-42
2024/03/27 05:15:34;;;;;;;;;;;;;;;3.04;82.41;97248.92;105852;1257;64791;-43
2024/03/27 05:18:01;;;;;;;;;;;;;;;3.10;82.24;97245.46;105537;1254;72418;-42
2024/03/27 05:20:28;;;;;;;;;;;;;;;3.17;82.06;97246.86;105597;1257;61250;-44
2024/03/27 05:22:56;;;;;;;;;;;;;;;3.25;81.65;97247.20;105666;1254;61226;-43
2024/03/27 05:25:23;;;;;;;;;;;;;;;3.34;81.19;97246.27;105795;1255;74359;-44
2024/03/27 05:27:50;;;;;;;;;;;;;;;3.43;80.98;97239.03;105735;1256;66761;-44
2024/03/27 05:30:17;;;;;;;;;;;;;;;3.52;80.56;97231.85;105728;1254;72339;-44
2024/03/27 05:32:45;;;;;;;;;;;;;;;3.59;79.78;97227.60;105678;1256;61369;-45
2024/03/27 05:35:12;;;;;;;;;;;;;;;3.65;79.54;97229.15;106210;1254;61183;-44
2024/03/27 05:37:39;;;;;;;;;;;;;;;3.71;79.23;97230.52;105647;1257;74397;-42
2024/03/27 05:40:06;;;;;;;;;;;;;;;3.77;78.91;97228.30;105851;1257;65757;-43
2024/03/27 05:42:35;;;;;;;;;;;;;;;3.82;78.61;97229.00;105687;1254;72619;-43
2024/03/27 05:45:02;;;;;;;;;;;;;;;3.86;78.36;97224.80;105517;1256;61356;-43
2024/03/27 05:47:29;;;;;;;;;;;;;;;3.89;78.30;97222.64;105669;1257;61272;-44
2024/03/27 05:49:56;;;;;;;;;;;;;;;3.94;78.40;97216.86;105548;1254;74251;-40
2024/03/27 05:52:23;;;;;;;;;;;;;;;4.01;79.12;97220.03;105525;1256;66096;-41
2024/03/27 05:54:52;;;;;;;;;;;;;;;4.13;80.01;97225.10;105523;1254;72567;-40
2024/03/27 05:57:19;;;;;;;;;;;;;;;4.30;79.40;97229.23;105771;1257;62817;-40
2024/03/27 05:59:46;;;;;;;;;;;;;;;4.41;79.05;97221.83;105489;1254;61241;-39
2024/03/27 06:02:13;;;;;;;;;;;;;;;4.51;79.04;97229.42;105519;1260;74526;-41
2024/03/27 06:04:40;;;;;;;;;;;;;;;4.64;78.89;97224.52;105609;1256;65280;-41
2024/03/27 06:07:07;;;;;;;;;;;;;;;4.75;78.45;97223.20;105504;1256;73236;-41
2024/03/27 06:09:34;;;;;;;;;;;;;;;4.82;77.99;97220.84;105712;1256;61279;-39
2024/03/27 06:12:03;;;;;;;;;;;;;;;4.88;77.31;97221.65;105619;1254;61313;-39
2024/03/27 06:14:30;;;;;;;;;;;;;;;4.91;77.07;97219.96;105558;1254;73136;-39
2024/03/27 06:16:57;;;;;;;;;;;;;;;4.94;77.03;97217.86;105643;1257;66804;-41
2024/03/27 06:19:24;;;;;;;;;;;;;;;5.00;77.24;97231.12;105608;1257;72570;-40
2024/03/27 06:21:51;;;;;;;;;;;;;;;5.09;77.64;97235.04;105509;1256;61346;-40
2024/03/27 06:24:18;;;;;;;;;;;;;;;5.20;77.01;97233.82;105719;1256;61211;-39
2024/03/27 06:26:45;;;;;;;;;;;;;;;5.29;76.88;97234.67;105832;1256;74266;-38
2024/03/27 06:29:13;;;;;;;;;;;;;;;5.42;76.74;97231.89;105629;1256;66224;-41
2024/03/27 06:31:40;;;;;;;;;;;;;;;5.57;76.21;97230.95;105678;1254;72324;-41
2024/03/27 06:34:07;;;;;;;;;;;;;;;5.71;75.00;97229.09;105678;1257;61336;-38
2024/03/27 06:36:34;;;;;;;;;;;;;;;5.78;74.98;97219.63;105578;1254;61230;-39
2024/03/27 06:39:02;;;;;;;;;;;;;;;5.83;74.31;97221.56;105528;1253;75384;-35
2024/03/27 06:41:29;;;;;;;;;;;;;;;5.87;73.62;97217.20;105670;1253;65058;-39
2024/03/27 06:43:56;;;;;;;;;;;;;;;5.92;74.02;97211.16;105628;1254;72662;-37
2024/03/27 06:46:24;;;;;;;;;;;;;;;6.02;73.99;97214.95;105757;1257;61471;-37
2024/03/27 06:48:56;;;;;;;;;;;;;;;6.11;73.55;97208.75;107223;1253;61205;-38
2024/03/27 06:51:23;;;;;;;;;;;;;;;6.22;73.39;97210.82;105661;1256;74886;-39
2024/03/27 06:53:50;;;;;;;;;;;;;;;6.33;73.28;97208.27;105824;1256;65626;-38
2024/03/27 06:56:18;;;;;;;;;;;;;;;6.42;72.58;97206.31;105794;1254;72356;-38
2024/03/27 06:58:45;;;;;;;;;;;;;;;6.49;71.63;97208.15;105642;1257;61288;-37
2024/03/27 07:01:12;;;;;;;;;;;;;;;6.56;72.19;97200.69;105721;1254;61256;-35
2024/03/27 07:03:50;;;;;;;;;;;;;;;6.69;72.43;97196.27;105416;1259;75221;-37
2024/03/27 07:06:17;;;;;;;;;;;;;;;6.86;71.76;97193.89;105556;1257;67200;-37
2024/03/27 07:08:44;;;;;;;;;;;;;;;7.02;70.63;97196.77;105500;1254;73425;-41
2024/03/27 07:11:11;;;;;;;;;;;;;;;7.15;69.70;97188.30;105647;1257;61362;-38
2024/03/27 07:13:39;;;;;;;;;;;;;;;7.25;69.68;97196.30;105639;1254;61222;-39
2024/03/27 07:16:07;;;;;;;;;;;;;;;7.37;69.63;97189.11;105554;1254;74379;-39
2024/03/27 07:18:34;;;;;;;;;;;;;;;7.51;68.71;97196.73;105791;1254;65181;-39
2024/03/27 07:21:01;;;;;;;;;;;;;;;7.63;68.41;97189.84;105674;1254;73838;-42
2024/03/27 07:23:29;;;;;;;;;;;;;;;7.74;68.44;97183.95;105669;1256;61628;-39
2024/03/27 07:25:56;;;;;;;;;;;;;;;7.86;67.29;97185.09;105644;1254;61324;-37
2024/03/27 07:28:23;;;;;;;;;;;;;;;7.99;66.35;97187.90;105573;1254;74534;-39
2024/03/27 07:30:51;;;;;;;;;;;;;;;8.12;66.17;97185.77;105477;1253;67131;-38
2024/03/27 07:33:32;;;;;;;;;;;;;;;8.24;65.93;97181.83;109387;1253;75345;-40
2024/03/27 07:35:59;;;;;;;;;;;;;;;8.32;64.68;97181.91;105874;1253;61262;-41
2024/03/27 07:38:26;;;;;;;;;;;;;;;8.39;64.25;97176.19;105511;1254;61232;-40
2024/03/27 07:40:54;;;;;;;;;;;;;;;8.45;63.57;97170.80;105596;1254;76615;-38
2024/03/27 07:43:22;;;;;;;;;;;;;;;8.48;63.37;97166.26;105745;1257;66934;-40
2024/03/27 07:45:53;;;;;;;;;;;;;;;8.49;62.93;97166.55;105397;1256;74664;-38
2024/03/27 07:48:20;;;;;;;;;;;;;;;8.49;63.43;97171.83;105750;1257;61659;-38
2024/03/27 07:50:49;;;;;;;;;;;;;;;8.48;63.29;97165.94;105576;1254;61855;-39
2024/03/27 07:53:17;;;;;;;;;;;;;;;8.43;62.73;97167.86;105970;1253;73447;-39
2024/03/27 07:55:44;;;;;;;;;;;;;;;8.35;63.32;97161.23;105670;1256;66169;-40
2024/03/27 07:58:11;;;;;;;;;;;;;;;8.33;63.62;97164.13;105490;1255;73440;-40
2024/03/27 08:00:40;;;;;;;;;;;;;;;8.42;63.87;97159.46;105719;1256;61226;-41
2024/03/27 08:03:08;;;;;;;;;;;;;;;8.55;63.86;97165.14;105634;1254;61333;-40
2024/03/27 08:08:42;;;;;;;;;;;;;;;8.89;63.25;97166.05;105383;1260;68289;-40
2024/03/27 08:11:11;;;;;;;;;;;;;;;9.07;62.18;97156.48;105554;1254;73196;-40
2024/03/27 08:13:38;;;;;;;;;;;;;;;9.22;62.71;97149.11;105672;1257;61355;-41
2024/03/27 08:16:07;;;;;;;;;;;;;;;9.40;62.91;97146.93;105593;1254;61294;-41
2024/03/27 08:18:40;;;;;;;;;;;;;;;9.61;60.65;97144.08;105423;1254;74594;-40
2024/03/27 08:21:07;;;;;;;;;;;;;;;9.75;59.05;97140.88;106539;1253;67172;-50
2024/03/27 08:23:35;;;;;;;;;;;;;;;9.83;57.26;97128.74;105515;1254;73201;-49
2024/03/27 08:26:02;;;;;;;;;;;;;;;9.89;56.04;97133.60;105272;1257;61339;-48
2024/03/27 08:28:35;;;;;;;;;;;;;;;9.93;56.32;97130.83;105573;1254;61375;-47
2024/03/27 08:31:03;;;;;;;;;;;;;;;9.99;56.56;97125.16;105484;1256;75402;-45
2024/03/27 08:33:31;;;;;;;;;;;;;;;10.10;56.44;97123.11;105524;1254;66174;-44
2024/03/27 08:36:01;;;;;;;;;;;;;;;10.23;56.32;97118.52;105564;1254;73303;-49
2024/03/27 08:38:29;;;;;;;;;;;;;;;10.36;55.61;97128.84;105485;1257;61222;-41
2024/03/27 08:40:57;;;;;;;;;;;;;;;10.46;52.51;97129.48;105564;1259;61304;-41
2024/03/27 08:43:25;;;;;;;;;;;;;;;10.51;53.89;97122.61;107502;1256;75424;-41
2024/03/27 08:45:52;;;;;;;;;;;;;;;10.60;53.82;97119.58;109415;1253;66064;-44
2024/03/27 08:48:19;;;;;;;;;;;;;;;10.65;52.07;97132.39;108202;1253;73153;-44
2024/03/27 08:50:46;;;;;;;;;;;;;;;10.64;51.60;97111.27;105538;1254;61218;-45
2024/03/27 08:53:14;;;;;;;;;;;;;;;10.61;51.85;97125.44;105635;1254;61445;-47
2024/03/27 08:55:42;;;;;;;;;;;;;;;10.61;50.91;97105.09;105684;1254;75437;-45
2024/03/27 08:58:09;;;;;;;;;;;;;;;10.62;51.03;97097.09;105725;1254;67150;-41
2024/03/27 09:00:41;;;;;;;;;;;;;;;10.66;51.78;97107.17;105830;1252;72923;-47
2024/03/27 09:03:09;;;;;;;;;;;;;;;10.71;51.40;97099.77;105540;1258;61222;-46
2024/03/27 09:05:36;;;;;;;;;;;;;;;10.74;51.83;97094.41;105538;1254;61321;-43
2024/03/27 09:08:03;;;;;;;;;;;;;;;10.79;51.17;97090.67;105606;1254;76905;-45
2024/03/27 09:10:31;;;;;;;;;;;;;;;10.84;51.68;97093.48;105530;1256;67257;-45
2024/03/27 09:12:58;;;;;;;;;;;;;;;10.89;51.65;97087.70;105513;1254;72495;-47
2024/03/27 09:15:25;;;;;;;;;;;;;;;10.99;52.54;97085.21;105593;1256;61289;-41
2024/03/27 09:17:53;;;;;;;;;;;;;;;11.10;52.00;97093.05;109403;1254;59410;-42
2024/03/27 09:20:25;;;;;;;;;;;;;;;11.21;49.82;97094.52;106233;1254;74434;-47
2024/03/27 09:22:57;;;;;;;;;;;;;;;11.29;49.73;97085.26;105894;1256;67011;-47
2024/03/27 09:25:26;;;;;;;;;;;;;;;11.43;50.85;97079.38;105733;1254;74671;-43
2024/03/27 09:27:57;;;;;;;;;;;;;;;11.61;50.06;97073.10;108772;1254;61336;-45
2024/03/27 09:30:35;;;;;;;;;;;;;;;11.72;49.49;97062.86;106150;1254;61292;-45
2024/03/27 09:33:05;;;;;;;;;;;;;;;11.75;49.55;97063.77;105458;1254;74849;-41
2024/03/27 09:35:36;;;;;;;;;;;;;;;11.82;49.00;97063.27;106590;1256;66666;-42
2024/03/27 09:38:08;;;;;;;;;;;;;;;11.86;48.20;97057.64;105481;1260;72571;-43
2024/03/27 09:41:17;;;;;;;;;;;;;;;11.89;47.57;97060.61;105250;1254;61373;-44
2024/03/27 09:43:57;;;;;;;;;;;;;;;11.92;47.58;97052.89;105768;1253;61320;-42
2024/03/27 09:47:09;;;;;;;;;;;;;;;11.96;47.00;97046.09;105557;1253;73899;-41
2024/03/27 09:50:27;;;;;;;;;;;;;;;12.03;46.91;97060.42;105439;1259;64924;-41
2024/03/27 09:53:06;;;;;;;;;;;;;;;12.14;46.11;97063.98;105614;1254;72586;-43
2024/03/27 09:55:37;;;;;;;;;;;;;;;12.18;46.17;97053.90;105944;1255;61537;-39
2024/03/27 09:58:11;;;;;;;;;;;;;;;12.27;47.22;97046.81;105759;1254;61256;-44
2024/03/27 10:00:42;;;;;;;;;;;;;;;12.38;46.04;97048.87;105649;1253;73276;-44
2024/03/27 10:03:12;;;;;;;;;;;;;;;12.46;45.81;97039.16;105722;1254;66595;-43
2024/03/27 10:05:46;;;;;;;;;;;;;;;12.53;45.33;97045.52;106501;1254;74772;-45
2024/03/27 10:08:19;;;;;;;;;;;;;;;12.64;44.53;97043.50;105512;1253;61378;-45
2024/03/27 10:10:50;;;;;;;;;;;;;;;12.73;44.90;97032.20;107950;1255;59724;-44
2024/03/27 10:13:20;;;;;;;;;;;;;;;12.81;43.16;97041.05;105436;1254;74437;-41
2024/03/27 10:15:49;;;;;;;;;;;;;;;12.78;42.58;97047.87;105420;1254;66288;-41
2024/03/27 10:18:24;;;;;;;;;;;;;;;12.74;42.53;97049.42;105853;1258;73347;-41
2024/03/27 10:20:54;;;;;;;;;;;;;;;12.77;42.92;97033.84;105534;1252;62355;-41
2024/03/27 10:23:25;;;;;;;;;;;;;;;12.81;42.62;97033.71;105733;1257;61218;-40
2024/03/27 10:26:06;;;;;;;;;;;;;;;12.86;42.79;97036.27;105763;1259;75122;-40
2024/03/27 10:28:43;;;;;;;;;;;;;;;12.93;42.27;97021.09;105639;1259;67856;-41
2024/03/27 10:31:13;;;;;;;;;;;;;;;12.99;42.24;97027.08;105391;1256;74980;-43
2024/03/27 10:33:41;;;;;;;;;;;;;;;13.03;41.99;97021.61;105442;1256;61298;-44
2024/03/27 10:36:09;;;;;;;;;;;;;;;13.09;42.38;97014.81;105900;1252;61269;-40
2024/03/27 10:38:40;;;;;;;;;;;;;;;13.15;41.05;97013.09;105584;1253;74358;-41
2024/03/27 10:41:09;;;;;;;;;;;;;;;13.15;40.71;97017.48;105328;1261;66003;-41
2024/03/27 10:43:40;;;;;;;;;;;;;;;13.05;40.13;97012.04;105747;1254;72257;-41
2024/03/27 10:46:12;;;;;;;;;;;;;;;12.94;39.72;97026.29;105903;1254;62172;-42
2024/03/27 10:48:43;;;;;;;;;;;;;;;12.89;40.34;97025.41;105631;1254;61122;-41
2024/03/27 10:51:11;;;;;;;;;;;;;;;12.96;40.01;97028.14;109075;1253;73319;-42
2024/03/27 10:53:41;;;;;;;;;;;;;;;13.09;40.13;97023.19;105638;1254;67029;-38
2024/03/27 10:56:10;;;;;;;;;;;;;;;13.23;40.68;97023.36;105638;1257;73633;-36
2024/03/27 10:58:38;;;;;;;;;;;;;;;13.36;40.41;97017.79;105455;1257;61349;-37
2024/03/27 11:01:05;;;;;;;;;;;;;;;13.57;39.55;97017.90;105526;1253;61330;-38
2024/03/27 11:03:33;;;;;;;;;;;;;;;13.80;39.77;97019.43;105485;1258;75469;-36
2024/03/27 11:06:01;;;;;;;;;;;;;;;14.11;38.63;97018.69;105333;1256;65956;-41
2024/03/27 11:08:29;;;;;;;;;;;;;;;14.36;37.68;97010.36;105610;1256;73381;-39
2024/03/27 11:11:03;;;;;;;;;;;;;;;14.62;38.18;96998.39;105492;1259;61257;-37
2024/03/27 11:13:30;;;;;;;;;;;;;;;14.91;36.63;97005.80;105486;1255;61365;-41
2024/03/27 11:15:59;;;;;;;;;;;;;;;14.96;36.33;97010.88;105510;1252;76039;-40
2024/03/27 11:18:30;;;;;;;;;;;;;;;15.05;36.29;97006.45;105124;1259;308092;-39
2024/03/27 11:20:58;;;;;;;;;;;;;;;15.19;35.85;97009.75;105460;1254;73549;-41
2024/03/27 11:23:35;;;;;;;;;;;;;;;15.31;36.41;97008.91;105336;1256;61683;-44
2024/03/27 11:26:02;;;;;;;;;;;;;;;15.48;36.58;97005.32;105533;1254;61138;-46
2024/03/27 11:28:31;;;;;;;;;;;;;;;15.58;36.59;96999.75;105547;1256;75460;-47
2024/03/27 11:30:58;;;;;;;;;;;;;;;15.75;36.67;97006.75;105511;1254;67146;-40
2024/03/27 11:33:26;;;;;;;;;;;;;;;15.93;35.56;97000.43;109326;1253;73555;-40
2024/03/27 11:35:53;;;;;;;;;;;;;;;15.93;35.47;97002.02;105913;1254;61382;-41
2024/03/27 11:38:22;;;;;;;;;;;;;;;16.07;35.92;97001.30;105600;1254;61365;-41
2024/03/27 11:40:50;;;;;;;;;;;;;;;16.43;36.16;96989.75;105533;1259;75481;-39
2024/03/27 11:43:17;;;;;;;;;;;;;;;16.93;35.17;96990.23;105814;1256;64882;-39
2024/03/27 11:45:45;;;;;;;;;;;;;;;17.16;34.53;96981.12;105591;1254;73429;-40
2024/03/27 11:48:12;;;;;;;;;;;;;;;17.22;34.64;96976.91;109338;1253;60036;-40
2024/03/27 11:50:40;;;;;;;;;;;;;;;17.37;34.21;96975.43;109067;1252;59583;-41
2024/03/27 11:53:09;;;;;;;;;;;;;;;17.52;34.30;96964.05;105555;1253;74864;-42
2024/03/27 11:55:36;;;;;;;;;;;;;;;17.76;34.17;96962.92;106173;1254;67770;-40
2024/03/27 11:58:04;;;;;;;;;;;;;;;17.96;34.06;96957.39;105434;1253;73258;-40
2024/03/27 12:00:31;;;;;;;;;;;;;;;18.12;32.99;96963.46;105259;1256;61283;-41
2024/03/27 12:02:59;;;;;;;;;;;;;;;18.12;32.21;96966.88;109392;1253;60046;-41
2024/03/27 12:05:27;;;;;;;;;;;;;;;17.96;31.96;96965.59;107246;1256;75202;-43
2024/03/27 12:07:54;;;;;;;;;;;;;;;17.85;32.26;96966.10;105360;1257;67180;-38
2024/03/27 12:10:22;;;;;;;;;;;;;;;18.05;31.88;96968.67;105626;1254;73207;-41
2024/03/27 12:12:49;;;;;;;;;;;;;;;18.34;31.73;96972.02;105501;1257;61222;-39
2024/03/27 12:15:17;;;;;;;;;;;;;;;18.50;31.27;96975.38;105926;1254;61329;-39
2024/03/27 12:17:45;;;;;;;;;;;;;;;18.45;31.39;96976.06;105269;1254;74281;-39
2024/03/27 12:20:14;;;;;;;;;;;;;;;18.35;31.28;96977.76;105963;1256;67101;-41
2024/03/27 12:22:42;;;;;;;;;;;;;;;18.27;31.14;96975.92;105609;1254;73283;-44
2024/03/27 12:25:10;;;;;;;;;;;;;;;18.24;32.13;96973.71;105516;1254;61227;-40
2024/03/27 12:27:37;;;;;;;;;;;;;;;18.37;31.51;96968.02;105613;1254;61333;-41
2024/03/27 12:30:06;;;;;;;;;;;;;;;18.40;31.19;96952.48;105488;1256;75446;-39
2024/03/27 12:32:34;;;;;;;;;;;;;;;18.44;31.71;96957.46;105517;1254;67090;-38
2024/03/27 12:35:02;;;;;;;;;;;;;;;18.53;31.00;96959.39;105612;1254;72279;-41
2024/03/27 12:37:31;;;;;;;;;;;;;;;18.59;31.11;96964.05;105825;1256;61419;-40
2024/03/27 12:39:59;;;;;;;;;;;;;;;18.60;31.50;96954.07;106303;1256;61154;-39
2024/03/27 12:42:26;;;;;;;;;;;;;;;18.64;31.33;96956.52;105544;1252;75409;-39
2024/03/27 12:44:54;;;;;;;;;;;;;;;18.57;31.53;96957.89;106384;1257;67687;-39
2024/03/27 12:47:21;;;;;;;;;;;;;;;18.55;31.59;96949.48;105389;1254;73415;-36
2024/03/27 12:49:48;;;;;;;;;;;;;;;18.68;31.53;96963.48;105500;1256;61243;-40
2024/03/27 12:52:17;;;;;;;;;;;;;;;18.49;31.37;96963.49;105463;1254;61250;-36